Time;durP1;ratioP1;P1;durP2;ratioP2;P2;SDS_P1;SDS_P2;PMS_P1;PMS_P2;Temp;Humidity;BMP_temperature;BMP_pressure;BME280_temperature;BME280_humidity;BME280_pressure;Samples;Min_cycle;Max_cycle;Signal;HPM_P1;HPM_P2
2021/12/08 00:01:13;;;;;;;1.93;1.20;;;6.50;99.90;;;;;;4998661;28;20573;-85
2021/12/08 00:03:43;;;;;;;1.10;1.00;;;6.50;99.90;;;;;;5005520;28;20453;-86
2021/12/08 00:06:11;;;;;;;3.47;1.50;;;6.40;99.90;;;;;;5004617;28;20465;-83
2021/12/08 00:08:45;;;;;;;3.13;0.90;;;6.30;99.90;;;;;;5006040;28;20472;-86
2021/12/08 00:14:00;;;;;;;0.93;0.80;;;6.20;99.90;;;;;;5007330;28;20473;-85
2021/12/08 00:16:28;;;;;;;1.27;1.17;;;6.00;99.90;;;;;;5006966;28;20214;-85
2021/12/08 00:18:59;;;;;;;6.33;0.93;;;6.10;99.90;;;;;;5008945;28;20457;-83
2021/12/08 00:21:28;;;;;;;1.20;0.90;;;6.30;99.90;;;;;;5010222;28;20481;-83
2021/12/08 00:23:57;;;;;;;1.20;1.10;;;6.30;99.90;;;;;;5011436;28;20975;-82
2021/12/08 00:26:25;;;;;;;7.50;1.23;;;6.30;99.90;;;;;;5021325;28;21040;-83
2021/12/08 00:28:53;;;;;;;0.90;0.80;;;6.30;99.90;;;;;;5014662;28;20831;-82
2021/12/08 00:31:21;;;;;;;0.70;0.70;;;6.00;99.90;;;;;;5006305;28;20503;-82
2021/12/08 00:33:49;;;;;;;1.87;1.10;;;6.00;99.90;;;;;;5014791;28;20449;-82
2021/12/08 00:36:26;;;;;;;2.00;1.10;;;6.10;99.90;;;;;;5010553;28;20520;-84
2021/12/08 00:38:54;;;;;;;1.10;1.10;;;6.30;99.90;;;;;;5008012;28;20473;-83
2021/12/08 00:41:22;;;;;;;2.20;1.03;;;6.40;99.90;;;;;;5010877;28;20485;-82
2021/12/08 00:43:50;;;;;;;1.43;0.90;;;6.40;99.90;;;;;;5011528;28;20551;-83
2021/12/08 00:46:19;;;;;;;1.70;0.80;;;6.60;99.90;;;;;;5007449;28;20454;-84
2021/12/08 00:48:49;;;;;;;1.43;0.90;;;6.40;99.90;;;;;;5006452;28;20480;-85
2021/12/08 00:51:19;;;;;;;1.07;0.90;;;6.40;99.90;;;;;;5006336;28;20488;-82
2021/12/08 00:53:48;;;;;;;1.40;1.30;;;6.30;99.90;;;;;;4994866;28;21010;-82
2021/12/08 00:56:17;;;;;;;1.07;1.03;;;6.30;99.90;;;;;;5009438;28;20987;-83
2021/12/08 00:58:45;;;;;;;1.73;1.03;;;6.20;99.90;;;;;;5006397;28;20460;-83
2021/12/08 01:01:28;;;;;;;4.13;1.20;;;6.30;99.90;;;;;;5004446;28;20509;-84
2021/12/08 01:03:57;;;;;;;1.67;0.80;;;6.30;99.90;;;;;;5008083;28;20456;-80
2021/12/08 01:06:28;;;;;;;2.00;0.80;;;6.20;99.90;;;;;;5019514;28;21011;-82
2021/12/08 01:08:56;;;;;;;1.40;0.90;;;6.20;99.90;;;;;;5018591;28;20508;-81
2021/12/08 01:11:24;;;;;;;1.17;1.07;;;6.30;99.90;;;;;;5011183;28;20488;-84
2021/12/08 01:13:53;;;;;;;0.73;0.73;;;6.40;99.90;;;;;;5011663;28;20464;-81
2021/12/08 01:16:23;;;;;;;0.90;0.90;;;6.40;99.90;;;;;;5010258;28;20463;-82
2021/12/08 01:18:51;;;;;;;1.33;0.87;;;6.40;99.90;;;;;;5009496;28;20467;-83
2021/12/08 01:21:21;;;;;;;1.20;0.83;;;6.40;99.90;;;;;;5004512;28;20511;-84
2021/12/08 01:23:51;;;;;;;1.03;0.90;;;6.20;99.90;;;;;;4997946;28;20456;-84
2021/12/08 01:26:19;;;;;;;1.00;1.00;;;6.20;99.90;;;;;;5002799;28;20811;-80
2021/12/08 01:28:50;;;;;;;0.90;0.80;;;6.10;99.90;;;;;;5007818;28;21031;-83
2021/12/08 01:31:18;;;;;;;1.03;0.93;;;6.20;99.90;;;;;;5001669;28;20469;-86
2021/12/08 01:33:46;;;;;;;1.07;0.97;;;6.10;99.90;;;;;;5008531;28;20473;-84
2021/12/08 01:36:15;;;;;;;1.10;0.80;;;6.00;99.90;;;;;;4999315;28;20450;-82
2021/12/08 01:38:43;;;;;;;0.90;0.80;;;6.00;99.90;;;;;;5035923;28;20461;-82
2021/12/08 01:41:13;;;;;;;0.80;0.80;;;6.10;99.90;;;;;;5006495;28;20476;-82
2021/12/08 01:43:43;;;;;;;1.33;1.00;;;6.20;99.90;;;;;;5013027;28;20949;-83
2021/12/08 01:46:12;;;;;;;2.07;1.10;;;6.30;99.90;;;;;;5007123;28;20453;-83
2021/12/08 01:48:45;;;;;;;2.43;1.10;;;6.30;99.90;;;;;;5008123;28;20548;-83
2021/12/08 01:51:17;;;;;;;1.10;0.90;;;6.30;99.90;;;;;;4998547;28;20477;-84
2021/12/08 01:53:49;;;;;;;1.40;1.07;;;6.60;99.90;;;;;;5008355;28;20907;-83
2021/12/08 01:56:20;;;;;;;5.33;1.43;;;6.50;99.90;;;;;;4999113;28;20460;-81
2021/12/08 01:58:48;;;;;;;1.17;1.07;;;6.40;99.90;;;;;;5005410;28;20474;-85
2021/12/08 02:01:20;;;;;;;1.10;1.00;;;6.40;99.90;;;;;;5006290;28;20493;-85
2021/12/08 02:03:48;;;;;;;1.43;0.83;;;6.60;99.90;;;;;;5003251;28;20574;-81
2021/12/08 02:06:19;;;;;;;0.90;0.90;;;6.30;99.90;;;;;;4998818;28;20463;-83
2021/12/08 02:08:50;;;;;;;0.93;0.83;;;6.30;99.90;;;;;;5004770;28;20476;-83
2021/12/08 02:11:21;;;;;;;1.73;1.13;;;6.40;99.90;;;;;;4997976;28;20681;-81
2021/12/08 02:13:52;;;;;;;1.23;0.80;;;6.40;99.90;;;;;;5004731;28;20677;-83
2021/12/08 02:16:21;;;;;;;1.53;0.80;;;6.40;99.90;;;;;;5002118;28;20473;-84
2021/12/08 02:18:50;;;;;;;0.80;0.80;;;6.40;99.90;;;;;;5000893;28;20548;-83
2021/12/08 02:21:26;;;;;;;1.97;1.13;;;6.50;99.90;;;;;;5003551;28;20507;-85
2021/12/08 02:23:56;;;;;;;2.30;0.83;;;6.50;99.90;;;;;;5001860;28;20470;-83
2021/12/08 02:26:24;;;;;;;1.00;0.90;;;6.50;99.90;;;;;;5001455;28;20894;-83
2021/12/08 02:28:53;;;;;;;1.40;1.03;;;6.50;99.90;;;;;;5008561;28;20461;-83
2021/12/08 02:31:32;;;;;;;1.00;0.90;;;6.50;99.90;;;;;;5010381;28;20489;-86
2021/12/08 02:48:07;;;;;;;1.03;0.93;;;6.70;99.90;;;;;;5001767;28;20468;-84
2021/12/08 02:50:38;;;;;;;1.43;1.27;;;6.70;99.90;;;;;;5000312;28;20485;-83
2021/12/08 02:53:09;;;;;;;0.87;0.87;;;6.70;99.90;;;;;;5004143;28;20481;-85
2021/12/08 02:55:39;;;;;;;1.37;0.90;;;6.70;99.90;;;;;;5006058;28;20469;-84
2021/12/08 02:58:07;;;;;;;1.70;1.07;;;6.70;99.90;;;;;;5008264;28;20753;-83
2021/12/08 03:00:39;;;;;;;1.37;1.00;;;6.80;99.90;;;;;;5002229;28;20477;-84
2021/12/08 03:03:08;;;;;;;1.07;0.97;;;6.70;99.90;;;;;;5002538;28;20824;-84
2021/12/08 03:05:37;;;;;;;1.00;0.87;;;6.70;99.90;;;;;;4997754;28;20500;-85
2021/12/08 03:08:09;;;;;;;0.93;0.93;;;6.70;99.90;;;;;;5001704;28;20468;-86
2021/12/08 03:10:41;;;;;;;6.33;1.20;;;6.70;99.90;;;;;;5000828;28;20812;-84
2021/12/08 03:13:09;;;;;;;1.23;1.13;;;6.60;99.90;;;;;;5004814;28;21021;-82
2021/12/08 03:15:38;;;;;;;2.17;1.20;;;6.50;99.90;;;;;;4999897;28;20466;-83
2021/12/08 03:18:07;;;;;;;4.13;1.30;;;6.30;99.90;;;;;;4996271;28;20787;-84
2021/12/08 03:20:40;;;;;;;1.20;1.10;;;6.30;99.90;;;;;;5000674;28;20484;-83
2021/12/08 03:23:13;;;;;;;1.30;1.10;;;6.30;99.90;;;;;;5000923;28;20850;-85
2021/12/08 03:25:44;;;;;;;1.87;1.10;;;6.40;99.90;;;;;;5006317;28;20969;-84
2021/12/08 03:28:18;;;;;;;2.97;1.07;;;6.40;99.90;;;;;;5000285;28;20492;-83
2021/12/08 03:31:00;;;;;;;3.40;1.47;;;6.40;99.90;;;;;;4993696;28;20478;-83
2021/12/08 03:33:29;;;;;;;1.80;1.13;;;6.40;1.00;;;;;;5025299;28;20487;-83
2021/12/08 03:35:58;;;;;;;3.30;1.10;;;6.40;1.00;;;;;;5001551;28;20904;-85
2021/12/08 03:38:28;;;;;;;1.70;1.60;;;6.40;1.00;;;;;;5013077;28;20464;-84
2021/12/08 03:40:58;;;;;;;1.73;1.20;;;6.40;1.00;;;;;;5010542;28;20644;-84
2021/12/08 03:43:27;;;;;;;1.57;1.30;;;6.40;1.00;;;;;;5009390;28;20464;-84
2021/12/08 03:45:57;;;;;;;1.47;1.17;;;6.20;1.00;;;;;;5003088;28;20472;-85
2021/12/08 03:48:37;;;;;;;3.77;1.57;;;6.30;1.00;;;;;;5002378;28;20453;-83
2021/12/08 03:51:06;;;;;;;1.67;1.37;;;6.40;1.00;;;;;;5002701;28;20875;-86
2021/12/08 03:53:36;;;;;;;1.73;1.47;;;6.40;1.00;;;;;;5004012;28;20484;-85
2021/12/08 03:56:06;;;;;;;2.80;1.13;;;6.40;1.00;;;;;;5001645;28;20560;-82
2021/12/08 03:58:35;;;;;;;1.90;1.20;;;6.40;1.00;;;;;;5002381;28;20469;-83
2021/12/08 04:01:06;;;;;;;1.50;1.10;;;6.50;1.00;;;;;;5005095;28;20473;-84
2021/12/08 04:03:36;;;;;;;2.33;2.07;;;6.60;1.00;;;;;;5001743;28;20461;-84
2021/12/08 04:06:18;;;;;;;3.17;1.50;;;6.90;1.00;;;;;;5006985;28;20836;-84
2021/12/08 04:08:54;;;;;;;1.60;1.30;;;6.90;1.00;;;;;;5002104;28;20468;-85
2021/12/08 04:11:24;;;;;;;1.50;1.40;;;6.80;1.00;;;;;;5008395;28;20504;-83
2021/12/08 04:13:57;;;;;;;2.50;1.40;;;6.80;1.00;;;;;;5003935;28;20622;-83
2021/12/08 04:16:33;;;;;;;1.40;1.30;;;6.80;1.00;;;;;;5000737;28;20458;-84
2021/12/08 04:19:02;;;;;;;3.00;2.07;;;6.70;1.00;;;;;;5001965;28;20453;-86
2021/12/08 04:21:32;;;;;;;1.80;1.60;;;6.50;94.60;;;;;;4999365;28;20483;-85
2021/12/08 04:24:02;;;;;;;2.10;1.27;;;6.40;99.90;;;;;;5001528;28;20456;-84
2021/12/08 04:26:35;;;;;;;2.07;1.40;;;6.20;1.00;;;;;;4998781;28;20465;-85
2021/12/08 04:29:05;;;;;;;1.93;1.43;;;6.00;99.90;;;;;;5002260;28;20837;-84
2021/12/08 04:31:35;;;;;;;1.67;1.57;;;5.80;1.00;;;;;;5000809;28;20496;-84
2021/12/08 04:34:07;;;;;;;1.90;1.17;;;5.90;99.90;;;;;;5006061;28;20461;-86
2021/12/08 04:36:44;;;;;;;1.70;1.60;;;6.00;99.90;;;;;;4997127;28;20852;-85
2021/12/08 04:39:25;;;;;;;2.00;1.40;;;6.00;1.00;;;;;;4991751;28;20550;-85
2021/12/08 04:42:00;;;;;;;2.03;1.52;;;5.70;1.00;;;;;;5008849;28;20457;-85
2021/12/08 04:44:36;;;;;;;1.50;1.40;;;5.70;99.90;;;;;;4995846;28;20202;-84
2021/12/08 04:47:29;;;;;;;2.43;2.23;;;6.00;1.00;;;;;;5001790;28;20460;-83
2021/12/08 04:53:12;;;;;;;4.10;1.60;;;6.00;99.90;;;;;;4998442;28;20466;-81
2021/12/08 05:01:26;;;;;;;1.83;1.50;;;6.40;99.90;;;;;;4999255;28;20580;-81
2021/12/08 05:06:50;;;;;;;4.43;1.70;;;6.60;1.00;;;;;;5004731;28;20461;-83
2021/12/08 05:09:24;;;;;;;2.90;1.70;;;6.60;20.80;;;;;;5012046;28;20461;-81
2021/12/08 05:11:55;;;;;;;1.93;1.50;;;6.50;99.90;;;;;;5006395;28;20453;-83
2021/12/08 05:14:28;;;;;;;2.13;1.50;;;6.50;99.90;;;;;;5005402;28;20484;-84
2021/12/08 05:17:00;;;;;;;1.80;1.70;;;6.70;99.90;;;;;;5004680;28;20465;-83
2021/12/08 05:19:31;;;;;;;3.27;1.90;;;6.80;1.00;;;;;;5003370;28;20824;-85
2021/12/08 05:22:04;;;;;;;1.47;1.37;;;6.90;1.00;;;;;;5004991;28;20468;-83
2021/12/08 05:24:36;;;;;;;2.33;1.50;;;6.90;1.00;;;;;;4997994;28;20458;-82
2021/12/08 05:27:08;;;;;;;1.50;1.40;;;6.90;1.00;;;;;;4995174;28;20454;-82
2021/12/08 05:29:40;;;;;;;2.80;2.27;;;6.90;1.00;;;;;;4998855;28;20542;-82
2021/12/08 05:32:09;;;;;;;2.30;1.70;;;6.80;1.00;;;;;;5004029;28;20449;-81
2021/12/08 05:34:39;;;;;;;2.80;1.87;;;6.80;1.00;;;;;;4999772;28;20587;-78
2021/12/08 05:37:09;;;;;;;1.97;1.60;;;6.70;1.00;;;;;;5004160;28;20484;-82
2021/12/08 05:39:38;;;;;;;7.53;4.20;;;6.80;1.00;;;;;;5004208;28;20495;-82
2021/12/08 05:42:10;;;;;;;3.13;2.30;;;6.80;1.00;;;;;;5001014;28;20450;-80
2021/12/08 05:44:41;;;;;;;3.70;2.43;;;6.80;1.00;;;;;;5002857;28;20454;-82
2021/12/08 05:47:16;;;;;;;2.43;2.23;;;6.70;1.00;;;;;;5000897;28;20450;-84
2021/12/08 05:49:45;;;;;;;2.43;2.10;;;6.60;1.00;;;;;;5004632;28;20564;-80
2021/12/08 05:52:15;;;;;;;3.03;1.90;;;6.60;2.50;;;;;;5000185;28;20808;-83
2021/12/08 05:54:46;;;;;;;2.13;1.80;;;6.60;1.00;;;;;;4998942;28;20479;-82
2021/12/08 05:57:23;;;;;;;1.93;1.67;;;6.60;1.00;;;;;;5004884;28;20577;-81
2021/12/08 05:59:54;;;;;;;3.67;2.63;;;6.70;1.00;;;;;;5003992;28;20473;-83
2021/12/08 06:02:25;;;;;;;2.83;2.00;;;6.70;1.00;;;;;;5003296;28;20454;-80
2021/12/08 06:04:54;;;;;;;3.30;3.00;;;6.50;1.00;;;;;;4998387;28;20536;-81
2021/12/08 06:07:22;;;;;;;2.40;2.20;;;6.40;99.90;;;;;;5000690;28;20461;-81
2021/12/08 06:09:53;;;;;;;2.37;1.93;;;6.40;1.00;;;;;;4993538;28;21046;-80
2021/12/08 06:12:24;;;;;;;1.60;1.50;;;6.40;99.90;;;;;;5002812;28;21119;-82
2021/12/08 06:14:55;;;;;;;2.70;1.70;;;6.50;99.90;;;;;;4997096;28;20572;-80
2021/12/08 06:17:27;;;;;;;2.20;1.73;;;6.60;22.70;;;;;;4996631;28;20521;-81
2021/12/08 06:19:56;;;;;;;2.70;2.03;;;6.70;1.00;;;;;;5005644;28;20484;-78
2021/12/08 06:22:26;;;;;;;3.03;2.67;;;6.70;1.00;;;;;;5000883;28;20863;-81
2021/12/08 06:24:54;;;;;;;2.77;1.87;;;6.80;1.00;;;;;;4995459;28;20346;-80
2021/12/08 06:27:29;;;;;;;2.03;1.77;;;6.80;1.00;;;;;;4994354;28;20458;-82
2021/12/08 06:29:57;;;;;;;2.17;1.77;;;6.70;1.00;;;;;;5004163;28;20479;-83
2021/12/08 06:32:26;;;;;;;2.60;1.77;;;6.70;1.00;;;;;;5034647;28;20794;-82
2021/12/08 06:34:56;;;;;;;2.10;1.80;;;6.70;1.00;;;;;;5002753;28;20447;-81
2021/12/08 06:37:28;;;;;;;3.57;1.60;;;6.70;1.00;;;;;;4992765;28;20210;-81
2021/12/08 06:40:01;;;;;;;2.40;1.73;;;6.70;1.00;;;;;;5002408;28;21348;-82
2021/12/08 06:42:35;;;;;;;1.50;1.40;;;6.80;1.00;;;;;;5001243;28;20996;-80
2021/12/08 06:45:07;;;;;;;1.70;1.57;;;6.80;1.00;;;;;;5000012;28;20853;-82
2021/12/08 06:47:40;;;;;;;1.67;1.57;;;6.80;1.00;;;;;;5001893;28;20471;-82
2021/12/08 06:50:13;;;;;;;2.23;1.50;;;6.70;1.00;;;;;;5019976;28;20487;-80
2021/12/08 06:52:41;;;;;;;3.07;2.13;;;6.60;99.90;;;;;;5003843;28;21059;-82
2021/12/08 06:55:17;;;;;;;2.43;1.70;;;6.70;99.90;;;;;;4999636;28;21087;-81
2021/12/08 06:57:50;;;;;;;3.07;1.70;;;6.70;62.20;;;;;;5004975;28;20472;-81
2021/12/08 07:00:34;;;;;;;2.40;1.50;;;6.80;1.00;;;;;;4995411;28;20480;-81
2021/12/08 07:03:20;;;;;;;1.80;1.47;;;7.00;1.00;;;;;;5008321;28;20472;-79
2021/12/08 07:06:08;;;;;;;2.63;1.27;;;7.00;1.00;;;;;;4994619;28;20983;-82
2021/12/08 07:08:42;;;;;;;1.87;1.30;;;7.10;1.00;;;;;;4990114;28;20457;-82
2021/12/08 07:11:11;;;;;;;2.00;1.80;;;7.20;99.90;;;;;;5003163;28;20848;-83
2021/12/08 07:13:40;;;;;;;3.37;1.97;;;7.20;99.90;;;;;;5001228;28;20464;-82
2021/12/08 07:16:30;;;;;;;2.70;2.30;;;7.20;99.90;;;;;;4996642;28;20652;-81
2021/12/08 07:19:09;;;;;;;3.60;2.50;;;7.20;99.90;;;;;;5003453;28;20198;-82
2021/12/08 07:21:40;;;;;;;2.43;1.90;;;7.50;99.90;;;;;;4998091;28;20487;-83
2021/12/08 07:24:13;;;;;;;4.20;2.00;;;7.30;99.90;;;;;;5005468;28;20926;-82
2021/12/08 07:26:43;;;;;;;1.83;1.73;;;7.00;99.90;;;;;;4992960;28;20455;-81
2021/12/08 07:29:20;;;;;;;2.40;2.30;;;7.40;99.90;;;;;;4996455;28;21000;-81
2021/12/08 07:31:52;;;;;;;1.87;1.60;;;7.40;99.90;;;;;;5009221;28;20486;-81
2021/12/08 07:34:22;;;;;;;2.23;1.77;;;7.40;99.90;;;;;;5000019;28;20471;-83
2021/12/08 07:36:53;;;;;;;1.40;1.30;;;7.20;99.90;;;;;;4996506;28;20960;-80
2021/12/08 07:39:27;;;;;;;2.20;1.60;;;7.00;99.90;;;;;;4994864;28;20491;-82
2021/12/08 07:42:00;;;;;;;1.33;1.20;;;6.80;1.00;;;;;;4996786;28;20465;-81
2021/12/08 07:44:31;;;;;;;1.73;1.63;;;6.80;1.00;;;;;;4991001;28;20818;-81
2021/12/08 07:47:05;;;;;;;1.87;1.70;;;6.60;99.90;;;;;;5000667;28;20469;-83
2021/12/08 07:49:42;;;;;;;1.57;1.23;;;6.70;99.90;;;;;;5000201;28;20484;-81
2021/12/08 07:52:14;;;;;;;2.03;1.70;;;6.80;99.90;;;;;;4994190;28;20450;-80
2021/12/08 07:54:43;;;;;;;3.63;2.30;;;6.60;99.90;;;;;;4993622;28;20465;-82
2021/12/08 07:57:15;;;;;;;2.17;2.03;;;6.50;1.00;;;;;;4991015;28;20774;-83
2021/12/08 07:59:48;;;;;;;1.83;1.57;;;6.50;1.00;;;;;;4986799;28;20531;-80
2021/12/08 08:02:17;;;;;;;1.73;1.60;;;6.40;99.90;;;;;;4994662;28;20481;-81
2021/12/08 08:04:48;;;;;;;1.77;1.60;;;6.30;1.00;;;;;;4997826;28;20489;-81
2021/12/08 08:07:19;;;;;;;1.53;1.40;;;6.50;55.50;;;;;;4992243;28;20449;-83
2021/12/08 08:09:50;;;;;;;1.90;1.80;;;6.60;1.00;;;;;;4996234;28;20478;-80
2021/12/08 08:12:21;;;;;;;2.50;2.00;;;6.80;1.00;;;;;;4994633;28;20457;-83
2021/12/08 08:14:55;;;;;;;1.57;1.37;;;6.80;99.90;;;;;;4997675;28;20458;-82
2021/12/08 08:17:31;;;;;;;1.70;1.53;;;6.80;99.90;;;;;;4997312;28;20972;-82
2021/12/08 08:20:01;;;;;;;1.97;1.80;;;6.90;37.00;;;;;;5001705;28;20473;-83
2021/12/08 08:22:31;;;;;;;2.15;1.83;;;6.80;99.90;;;;;;4996005;28;20458;-80
2021/12/08 08:25:01;;;;;;;2.20;2.03;;;6.60;1.00;;;;;;4998785;28;20465;-80
2021/12/08 08:27:31;;;;;;;2.37;2.17;;;6.50;99.90;;;;;;4987709;28;20845;-83
2021/12/08 08:30:02;;;;;;;2.57;2.20;;;6.50;99.90;;;;;;4990462;28;20484;-82
2021/12/08 08:32:35;;;;;;;3.30;2.10;;;6.70;1.00;;;;;;5011842;28;20469;-82
2021/12/08 08:35:12;;;;;;;3.20;1.93;;;6.80;1.00;;;;;;4998914;28;20469;-80
2021/12/08 08:37:42;;;;;;;2.53;1.90;;;6.70;1.00;;;;;;4999738;28;20462;-81
2021/12/08 08:40:18;;;;;;;3.87;2.07;;;6.80;99.90;;;;;;4994183;28;20915;-80
2021/12/08 08:42:51;;;;;;;2.10;1.50;;;6.90;99.90;;;;;;5016609;28;20465;-83
2021/12/08 08:45:26;;;;;;;3.70;2.10;;;6.60;1.00;;;;;;5000627;28;20453;-83
2021/12/08 08:47:58;;;;;;;3.70;2.43;;;6.80;1.00;;;;;;5001891;28;20473;-81
2021/12/08 08:50:30;;;;;;;3.20;2.13;;;7.00;99.90;;;;;;4996159;28;20478;-80
2021/12/08 08:53:00;;;;;;;2.23;1.50;;;7.00;99.90;;;;;;5001950;28;20696;-80
2021/12/08 08:55:48;;;;;;;2.40;1.63;;;6.80;99.90;;;;;;4994840;28;20608;-81
2021/12/08 08:58:17;;;;;;;2.10;1.90;;;6.50;1.00;;;;;;4996301;28;20457;-82
2021/12/08 09:00:52;;;;;;;3.03;1.70;;;6.80;99.90;;;;;;5000450;28;20481;-82
2021/12/08 09:03:25;;;;;;;2.93;1.77;;;6.80;99.90;;;;;;4999994;28;21184;-80
2021/12/08 09:05:57;;;;;;;2.00;1.80;;;6.70;1.00;;;;;;4999301;28;20449;-81
2021/12/08 09:08:31;;;;;;;2.37;2.17;;;7.00;99.90;;;;;;4997727;28;20469;-80
2021/12/08 09:11:06;;;;;;;1.90;1.70;;;6.90;99.90;;;;;;4998092;28;20470;-81
2021/12/08 09:13:38;;;;;;;1.63;1.30;;;7.10;1.00;;;;;;4998771;28;20858;-81
2021/12/08 09:16:15;;;;;;;1.60;1.50;;;6.80;67.30;;;;;;5029319;28;20481;-81
2021/12/08 09:18:52;;;;;;;2.27;2.00;;;6.90;99.90;;;;;;4998033;28;20457;-81
2021/12/08 09:21:27;;;;;;;3.00;1.80;;;6.70;99.90;;;;;;4996645;28;20484;-81
2021/12/08 09:24:05;;;;;;;2.20;1.40;;;6.80;99.90;;;;;;4998307;28;20464;-80
2021/12/08 09:26:50;;;;;;;2.23;2.03;;;6.60;99.90;;;;;;4996560;28;20461;-83
2021/12/08 09:29:23;;;;;;;2.30;1.60;;;6.80;1.00;;;;;;4992964;28;20838;-78
2021/12/08 09:31:58;;;;;;;2.70;1.67;;;6.40;99.90;;;;;;4994595;28;20462;-79
2021/12/08 09:34:31;;;;;;;2.77;2.07;;;6.60;1.00;;;;;;4993762;28;20969;-80
2021/12/08 09:37:04;;;;;;;1.87;1.60;;;6.60;1.00;;;;;;4999834;28;20488;-81
2021/12/08 09:39:36;;;;;;;1.90;1.30;;;6.60;1.00;;;;;;4999603;28;20461;-82
2021/12/08 09:42:10;;;;;;;1.97;1.60;;;6.60;1.00;;;;;;4997750;28;20475;-83
2021/12/08 09:44:42;;;;;;;1.63;1.50;;;6.80;99.90;;;;;;4996749;28;20472;-83
2021/12/08 09:47:12;;;;;;;2.70;1.63;;;6.90;99.90;;;;;;4998187;28;20911;-82
2021/12/08 09:49:41;;;;;;;1.97;1.50;;;7.00;1.00;;;;;;4996193;28;20547;-82
2021/12/08 09:52:09;;;;;;;2.00;1.80;;;7.10;1.00;;;;;;4998019;28;20512;-80
2021/12/08 09:54:39;;;;;;;4.27;1.33;;;7.00;1.00;;;;;;5000559;28;20504;-83
2021/12/08 09:57:12;;;;;;;2.30;1.50;;;7.00;1.00;;;;;;4999343;28;20868;-81
2021/12/08 09:59:46;;;;;;;1.77;1.50;;;7.00;1.00;;;;;;5003189;28;20493;-80
2021/12/08 10:02:29;;;;;;;1.67;1.57;;;7.10;1.00;;;;;;4993307;28;20489;-82
2021/12/08 10:04:59;;;;;;;1.60;1.30;;;7.20;1.00;;;;;;5002767;28;20457;-82
2021/12/08 10:07:28;;;;;;;1.03;1.00;;;7.10;1.00;;;;;;4994713;28;20536;-82
2021/12/08 10:09:56;;;;;;;2.10;1.87;;;7.20;99.90;;;;;;4998388;28;20474;-82
2021/12/08 10:12:25;;;;;;;2.47;1.60;;;7.30;99.90;;;;;;4996816;28;20566;-83
2021/12/08 10:14:53;;;;;;;1.50;1.40;;;7.20;99.90;;;;;;4993412;28;20451;-81
2021/12/08 10:17:23;;;;;;;1.77;1.60;;;7.30;99.90;;;;;;5000382;28;20487;-84
2021/12/08 10:20:08;;;;;;;1.50;1.30;;;7.40;99.90;;;;;;4998269;28;20475;-82
2021/12/08 10:22:36;;;;;;;2.60;1.87;;;7.40;99.90;;;;;;4996708;28;20459;-80
2021/12/08 10:25:09;;;;;;;2.70;1.77;;;7.50;99.90;;;;;;4999651;28;20460;-82
2021/12/08 10:28:06;;;;;;;2.07;1.87;;;7.50;99.90;;;;;;4998363;28;21054;-81
2021/12/08 10:30:41;;;;;;;2.00;1.90;;;7.60;99.90;;;;;;4995288;28;20486;-81
2021/12/08 10:33:47;;;;;;;3.37;1.97;;;7.60;99.90;;;;;;4996731;28;20466;-80
2021/12/08 10:36:34;;;;;;;1.80;1.50;;;7.70;99.90;;;;;;4994312;28;20454;-81
2021/12/08 10:39:07;;;;;;;3.00;1.73;;;7.70;99.90;;;;;;4994476;28;20459;-81
2021/12/08 10:41:54;;;;;;;5.70;2.47;;;7.70;99.90;;;;;;4998683;28;20481;-81
2021/12/08 10:44:47;;;;;;;4.30;2.00;;;7.70;99.90;;;;;;4999248;28;20461;-80
2021/12/08 10:47:19;;;;;;;2.90;1.60;;;7.70;99.90;;;;;;5001796;28;20454;-83
2021/12/08 10:55:33;;;;;;;2.17;1.87;;;7.50;99.90;;;;;;4997965;28;20464;-82
2021/12/08 10:58:03;;;;;;;2.93;2.63;;;7.50;99.90;;;;;;4996813;28;20505;-80
2021/12/08 11:00:36;;;;;;;2.80;2.10;;;7.50;99.90;;;;;;5003121;28;20496;-81
2021/12/08 11:03:06;;;;;;;2.17;1.70;;;7.60;99.90;;;;;;5008044;28;21113;-82
2021/12/08 11:05:51;;;;;;;2.97;2.03;;;7.60;99.90;;;;;;5002207;28;20462;-80
2021/12/08 11:08:27;;;;;;;5.10;1.40;;;7.70;99.90;;;;;;5009228;28;20468;-81
2021/12/08 11:10:58;;;;;;;1.73;1.30;;;7.70;43.00;;;;;;5004027;28;20477;-84
2021/12/08 11:13:28;;;;;;;1.90;1.80;;;7.70;51.80;;;;;;5013499;28;20485;-82
2021/12/08 11:16:07;;;;;;;1.80;1.70;;;7.70;59.80;;;;;;4997827;28;20479;-81
2021/12/08 11:18:39;;;;;;;2.27;1.47;;;7.70;99.90;;;;;;5008555;28;20502;-82
2021/12/08 11:21:16;;;;;;;3.03;1.60;;;7.70;20.10;;;;;;5035678;28;20486;-83
2021/12/08 11:24:06;;;;;;;1.20;1.10;;;7.70;52.20;;;;;;5001336;28;20965;-83
2021/12/08 11:26:38;;;;;;;1.67;1.53;;;7.70;11.10;;;;;;5007393;28;20964;-83
2021/12/08 11:29:09;;;;;;;2.20;1.53;;;7.70;32.20;;;;;;5000810;28;20481;-81
2021/12/08 11:31:41;;;;;;;1.40;1.30;;;7.80;83.30;;;;;;4999211;28;20500;-84
2021/12/08 11:34:18;;;;;;;2.47;1.30;;;7.70;1.00;;;;;;5000315;28;20865;-81
2021/12/08 11:36:51;;;;;;;2.43;1.93;;;7.70;5.00;;;;;;5006097;28;20467;-84
2021/12/08 11:39:22;;;;;;;1.97;1.80;;;7.40;67.20;;;;;;4997252;28;20510;-82
2021/12/08 11:41:53;;;;;;;1.47;1.37;;;7.20;99.90;;;;;;5000570;28;20463;-83
2021/12/08 11:44:26;;;;;;;1.60;1.50;;;7.20;99.90;;;;;;5002359;28;20498;-82
2021/12/08 11:47:04;;;;;;;2.50;1.83;;;7.20;99.90;;;;;;4995865;28;20443;-82
2021/12/08 11:49:34;;;;;;;2.50;1.60;;;7.30;99.90;;;;;;5023888;28;20208;-81
2021/12/08 11:52:10;;;;;;;1.63;1.47;;;7.40;99.90;;;;;;5020977;28;20454;-81
2021/12/08 11:54:42;;;;;;;2.43;2.23;;;7.50;99.90;;;;;;5022258;28;20467;-82
2021/12/08 11:57:17;;;;;;;5.60;3.30;;;7.60;99.90;;;;;;5017814;28;21084;-82
2021/12/08 11:59:59;;;;;;;6.03;1.50;;;7.60;95.90;;;;;;5003349;28;20465;-81
2021/12/08 12:02:30;;;;;;;1.90;1.70;;;7.50;99.90;;;;;;5004071;28;20458;-82
2021/12/08 12:05:00;;;;;;;3.60;2.07;;;7.50;99.90;;;;;;4995440;28;20464;-81
2021/12/08 12:07:29;;;;;;;2.43;1.83;;;7.60;99.90;;;;;;5002285;28;20486;-81
2021/12/08 12:09:58;;;;;;;4.07;2.30;;;7.70;99.90;;;;;;5014624;28;20475;-82
2021/12/08 12:12:26;;;;;;;4.07;2.00;;;7.60;53.30;;;;;;5008951;28;20457;-83
2021/12/08 12:14:55;;;;;;;2.10;1.90;;;7.60;61.60;;;;;;5000459;28;20976;-80
2021/12/08 12:17:23;;;;;;;3.63;2.40;;;7.50;91.10;;;;;;5002061;28;20989;-81
2021/12/08 12:19:57;;;;;;;1.90;1.60;;;7.50;99.90;;;;;;4999436;28;20482;-83
2021/12/08 12:22:46;;;;;;;1.97;1.50;;;7.60;99.90;;;;;;5001133;28;20468;-84
2021/12/08 12:25:30;;;;;;;3.23;2.23;;;7.70;99.90;;;;;;5001662;28;20475;-84
2021/12/08 12:28:28;;;;;;;3.97;2.53;;;7.80;99.90;;;;;;5003001;28;20923;-80
2021/12/08 12:31:06;;;;;;;3.10;2.40;;;7.80;16.60;;;;;;5001193;28;20482;-81
2021/12/08 12:33:41;;;;;;;3.80;2.73;;;7.80;30.00;;;;;;5001225;28;20460;-83
2021/12/08 12:36:20;;;;;;;3.73;2.40;;;7.90;22.10;;;;;;5000779;28;20488;-81
2021/12/08 12:38:50;;;;;;;3.97;2.57;;;7.90;1.00;;;;;;4997805;28;20475;-80
2021/12/08 12:41:29;;;;;;;5.50;2.90;;;7.90;1.00;;;;;;4990271;28;20485;-82
2021/12/08 12:44:15;;;;;;;4.22;2.83;;;7.90;1.00;;;;;;5000478;28;20451;-83
2021/12/08 12:47:10;;;;;;;4.13;3.70;;;7.90;1.00;;;;;;4999666;28;20208;-80
2021/12/08 12:49:41;;;;;;;6.83;3.60;;;8.20;1.00;;;;;;4986943;28;20489;-82
2021/12/08 12:52:11;;;;;;;3.53;2.97;;;8.00;1.00;;;;;;5001603;28;20459;-82
2021/12/08 12:54:42;;;;;;;4.23;3.63;;;8.10;1.00;;;;;;5001477;28;20699;-81
2021/12/08 12:57:11;;;;;;;4.53;2.87;;;8.10;1.00;;;;;;4992007;28;20466;-80
2021/12/08 12:59:42;;;;;;;4.97;2.50;;;8.00;1.00;;;;;;5000851;28;20503;-83
2021/12/08 13:02:17;;;;;;;4.23;3.10;;;8.10;1.00;;;;;;5002065;28;20476;-82
2021/12/08 13:04:56;;;;;;;2.53;2.33;;;8.10;1.00;;;;;;5002013;28;20993;-81
2021/12/08 13:07:25;;;;;;;4.23;2.70;;;8.10;1.00;;;;;;5002909;28;20475;-83
2021/12/08 13:09:56;;;;;;;3.80;3.03;;;8.10;1.00;;;;;;5003000;28;20527;-83
2021/12/08 13:12:27;;;;;;;2.70;2.30;;;8.10;1.00;;;;;;4997594;28;22115;-81
2021/12/08 13:15:09;;;;;;;4.80;3.60;;;8.10;1.00;;;;;;4998611;28;20453;-85
2021/12/08 13:17:38;;;;;;;4.50;3.20;;;8.10;1.00;;;;;;4997998;28;20456;-81
2021/12/08 13:20:09;;;;;;;7.60;4.20;;;8.10;1.00;;;;;;4998474;28;20498;-81
2021/12/08 13:22:54;;;;;;;6.33;3.90;;;8.10;1.00;;;;;;5008491;28;20563;-81
2021/12/08 13:25:40;;;;;;;4.77;3.60;;;8.10;1.00;;;;;;5002717;28;20459;-86
2021/12/08 13:28:13;;;;;;;4.40;3.10;;;8.10;1.00;;;;;;5000244;28;20469;-83
2021/12/08 13:30:49;;;;;;;6.00;4.67;;;8.10;1.00;;;;;;4995381;28;20979;-81
2021/12/08 13:33:27;;;;;;;5.87;3.43;;;8.10;1.00;;;;;;5005358;28;20472;-80
2021/12/08 13:35:56;;;;;;;3.63;2.90;;;8.10;1.00;;;;;;5002749;28;20826;-80
2021/12/08 13:38:25;;;;;;;5.93;4.40;;;7.90;1.00;;;;;;4993300;28;21117;-79
2021/12/08 13:40:57;;;;;;;3.77;3.37;;;7.80;1.00;;;;;;4996538;28;21032;-79
2021/12/08 13:43:38;;;;;;;3.60;2.80;;;7.90;1.00;;;;;;4991913;28;20470;-80
2021/12/08 13:46:08;;;;;;;4.27;3.20;;;8.00;1.00;;;;;;4992515;28;20525;-83
2021/12/08 13:48:37;;;;;;;4.70;2.87;;;7.90;1.00;;;;;;5003664;28;20475;-81
2021/12/08 13:51:19;;;;;;;4.87;2.90;;;7.70;1.00;;;;;;4997283;28;20923;-81
2021/12/08 13:54:24;;;;;;;3.80;2.90;;;7.80;1.00;;;;;;5003046;28;20457;-80
2021/12/08 13:56:54;;;;;;;7.67;3.40;;;7.80;1.00;;;;;;4999721;28;20467;-82
2021/12/08 13:59:51;;;;;;;5.80;3.60;;;7.90;1.00;;;;;;4998553;28;20509;-82
2021/12/08 14:02:25;;;;;;;4.43;3.10;;;7.90;1.00;;;;;;5015344;28;20964;-80
2021/12/08 14:05:04;;;;;;;6.17;3.50;;;8.00;1.00;;;;;;5026314;28;20464;-83